sensor_id;sensor_type;location;lat;lon;timestamp;P1;durP1;ratioP1;P2;durP2;ratioP2
13799;SDS011;6971;50.028;9.258;2023-03-26T00:02:28;6.13;;;2.27;;
13799;SDS011;6971;50.028;9.258;2023-03-26T00:07:29;9.33;;;2.80;;
13799;SDS011;6971;50.028;9.258;2023-03-26T00:12:29;4.90;;;2.20;;
13799;SDS011;6971;50.028;9.258;2023-03-26T00:17:29;8.17;;;2.07;;
13799;SDS011;6971;50.028;9.258;2023-03-26T00:22:30;13.70;;;2.13;;
13799;SDS011;6971;50.028;9.258;2023-03-26T00:27:30;7.27;;;2.30;;
13799;SDS011;6971;50.028;9.258;2023-03-26T00:32:31;9.27;;;2.10;;
13799;SDS011;6971;50.028;9.258;2023-03-26T00:37:32;6.50;;;1.50;;
13799;SDS011;6971;50.028;9.258;2023-03-26T00:42:32;10.70;;;2.80;;
13799;SDS011;6971;50.028;9.258;2023-03-26T00:47:33;6.00;;;2.83;;
13799;SDS011;6971;50.028;9.258;2023-03-26T00:52:35;11.27;;;2.40;;
13799;SDS011;6971;50.028;9.258;2023-03-26T00:57:35;6.83;;;2.37;;
13799;SDS011;6971;50.028;9.258;2023-03-26T01:02:36;5.90;;;1.93;;
13799;SDS011;6971;50.028;9.258;2023-03-26T01:07:36;7.27;;;1.87;;
13799;SDS011;6971;50.028;9.258;2023-03-26T01:12:37;8.83;;;2.10;;
13799;SDS011;6971;50.028;9.258;2023-03-26T01:17:37;9.13;;;2.70;;
13799;SDS011;6971;50.028;9.258;2023-03-26T01:22:41;5.20;;;2.20;;
13799;SDS011;6971;50.028;9.258;2023-03-26T01:27:47;6.50;;;2.17;;
13799;SDS011;6971;50.028;9.258;2023-03-26T01:49:02;7.03;;;2.03;;
13799;SDS011;6971;50.028;9.258;2023-03-26T01:54:04;10.17;;;2.00;;
13799;SDS011;6971;50.028;9.258;2023-03-26T02:04:25;10.53;;;1.97;;
13799;SDS011;6971;50.028;9.258;2023-03-26T02:09:34;4.07;;;2.07;;
13799;SDS011;6971;50.028;9.258;2023-03-26T02:14:41;8.40;;;2.10;;
13799;SDS011;6971;50.028;9.258;2023-03-26T02:19:43;6.00;;;2.07;;
13799;SDS011;6971;50.028;9.258;2023-03-26T02:24:43;5.10;;;1.90;;
13799;SDS011;6971;50.028;9.258;2023-03-26T02:29:44;4.67;;;2.53;;
13799;SDS011;6971;50.028;9.258;2023-03-26T02:34:46;6.47;;;2.47;;
13799;SDS011;6971;50.028;9.258;2023-03-26T02:39:46;5.07;;;2.17;;
13799;SDS011;6971;50.028;9.258;2023-03-26T02:44:47;7.80;;;2.70;;
13799;SDS011;6971;50.028;9.258;2023-03-26T02:49:47;16.03;;;3.30;;
13799;SDS011;6971;50.028;9.258;2023-03-26T02:54:47;7.33;;;2.67;;
13799;SDS011;6971;50.028;9.258;2023-03-26T02:59:48;6.60;;;3.00;;
13799;SDS011;6971;50.028;9.258;2023-03-26T03:04:49;9.37;;;2.80;;
13799;SDS011;6971;50.028;9.258;2023-03-26T03:09:50;5.47;;;2.73;;
13799;SDS011;6971;50.028;9.258;2023-03-26T03:14:51;9.10;;;2.77;;
13799;SDS011;6971;50.028;9.258;2023-03-26T03:19:51;7.03;;;2.40;;
13799;SDS011;6971;50.028;9.258;2023-03-26T03:24:51;6.83;;;2.87;;
13799;SDS011;6971;50.028;9.258;2023-03-26T03:29:52;10.07;;;3.70;;
13799;SDS011;6971;50.028;9.258;2023-03-26T03:34:52;4.23;;;2.53;;
13799;SDS011;6971;50.028;9.258;2023-03-26T03:39:52;4.97;;;2.70;;
13799;SDS011;6971;50.028;9.258;2023-03-26T03:44:53;5.20;;;2.67;;
13799;SDS011;6971;50.028;9.258;2023-03-26T03:49:53;5.40;;;2.27;;
13799;SDS011;6971;50.028;9.258;2023-03-26T03:54:55;11.77;;;2.73;;
13799;SDS011;6971;50.028;9.258;2023-03-26T03:59:56;7.53;;;2.73;;
13799;SDS011;6971;50.028;9.258;2023-03-26T04:04:57;8.00;;;2.63;;
13799;SDS011;6971;50.028;9.258;2023-03-26T04:09:58;6.63;;;2.63;;
13799;SDS011;6971;50.028;9.258;2023-03-26T04:15:00;11.33;;;3.33;;
13799;SDS011;6971;50.028;9.258;2023-03-26T04:20:01;10.47;;;2.97;;
13799;SDS011;6971;50.028;9.258;2023-03-26T04:25:05;7.40;;;2.83;;
13799;SDS011;6971;50.028;9.258;2023-03-26T04:30:06;7.83;;;2.37;;
13799;SDS011;6971;50.028;9.258;2023-03-26T04:35:12;7.23;;;2.80;;
13799;SDS011;6971;50.028;9.258;2023-03-26T04:40:17;13.07;;;4.00;;
13799;SDS011;6971;50.028;9.258;2023-03-26T04:45:19;8.10;;;2.17;;
13799;SDS011;6971;50.028;9.258;2023-03-26T04:50:22;7.83;;;2.73;;
13799;SDS011;6971;50.028;9.258;2023-03-26T04:55:24;8.83;;;3.20;;
13799;SDS011;6971;50.028;9.258;2023-03-26T05:00:32;6.17;;;3.07;;
13799;SDS011;6971;50.028;9.258;2023-03-26T05:05:32;9.47;;;2.77;;
13799;SDS011;6971;50.028;9.258;2023-03-26T05:10:33;11.07;;;3.17;;
13799;SDS011;6971;50.028;9.258;2023-03-26T05:15:34;8.27;;;2.60;;
13799;SDS011;6971;50.028;9.258;2023-03-26T05:20:34;8.43;;;3.43;;
13799;SDS011;6971;50.028;9.258;2023-03-26T05:25:35;8.80;;;2.80;;
13799;SDS011;6971;50.028;9.258;2023-03-26T05:30:35;7.30;;;3.13;;
13799;SDS011;6971;50.028;9.258;2023-03-26T05:35:35;8.70;;;2.60;;
13799;SDS011;6971;50.028;9.258;2023-03-26T05:40:36;10.23;;;2.70;;
13799;SDS011;6971;50.028;9.258;2023-03-26T05:45:37;12.10;;;2.93;;
13799;SDS011;6971;50.028;9.258;2023-03-26T05:50:37;8.57;;;2.60;;
13799;SDS011;6971;50.028;9.258;2023-03-26T05:55:37;7.20;;;2.73;;
13799;SDS011;6971;50.028;9.258;2023-03-26T06:00:39;11.63;;;2.40;;
13799;SDS011;6971;50.028;9.258;2023-03-26T06:05:40;8.83;;;2.50;;
13799;SDS011;6971;50.028;9.258;2023-03-26T06:10:41;9.60;;;2.70;;
13799;SDS011;6971;50.028;9.258;2023-03-26T06:15:42;7.70;;;3.10;;
13799;SDS011;6971;50.028;9.258;2023-03-26T06:20:43;7.40;;;2.60;;
13799;SDS011;6971;50.028;9.258;2023-03-26T06:25:43;6.07;;;2.83;;
13799;SDS011;6971;50.028;9.258;2023-03-26T06:30:44;9.20;;;3.00;;
13799;SDS011;6971;50.028;9.258;2023-03-26T06:35:45;6.47;;;2.70;;
13799;SDS011;6971;50.028;9.258;2023-03-26T06:40:45;10.87;;;3.00;;
13799;SDS011;6971;50.028;9.258;2023-03-26T06:45:49;18.57;;;8.00;;
13799;SDS011;6971;50.028;9.258;2023-03-26T06:50:51;6.43;;;3.67;;
13799;SDS011;6971;50.028;9.258;2023-03-26T06:55:51;8.50;;;3.00;;
13799;SDS011;6971;50.028;9.258;2023-03-26T07:00:53;12.30;;;4.00;;
13799;SDS011;6971;50.028;9.258;2023-03-26T07:05:54;12.27;;;3.97;;
13799;SDS011;6971;50.028;9.258;2023-03-26T07:10:55;9.57;;;3.27;;
13799;SDS011;6971;50.028;9.258;2023-03-26T07:15:55;7.70;;;2.67;;
13799;SDS011;6971;50.028;9.258;2023-03-26T07:20:56;8.80;;;2.50;;
13799;SDS011;6971;50.028;9.258;2023-03-26T07:25:56;8.17;;;2.57;;
13799;SDS011;6971;50.028;9.258;2023-03-26T07:41:49;13.73;;;9.33;;
13799;SDS011;6971;50.028;9.258;2023-03-26T07:46:56;15.00;;;6.93;;
13799;SDS011;6971;50.028;9.258;2023-03-26T07:51:59;14.83;;;5.87;;
13799;SDS011;6971;50.028;9.258;2023-03-26T07:57:02;23.10;;;12.67;;
13799;SDS011;6971;50.028;9.258;2023-03-26T08:02:28;13.73;;;4.10;;
13799;SDS011;6971;50.028;9.258;2023-03-26T08:13:03;17.30;;;4.20;;
13799;SDS011;6971;50.028;9.258;2023-03-26T08:29:22;12.67;;;4.00;;
13799;SDS011;6971;50.028;9.258;2023-03-26T08:34:28;10.63;;;3.90;;
13799;SDS011;6971;50.028;9.258;2023-03-26T08:39:28;14.57;;;4.10;;
13799;SDS011;6971;50.028;9.258;2023-03-26T08:55:38;11.47;;;4.47;;
13799;SDS011;6971;50.028;9.258;2023-03-26T10:15:43;6.87;;;2.40;;
13799;SDS011;6971;50.028;9.258;2023-03-26T10:31:43;8.20;;;2.60;;
13799;SDS011;6971;50.028;9.258;2023-03-26T10:48:11;6.97;;;3.27;;
13799;SDS011;6971;50.028;9.258;2023-03-26T10:58:30;5.47;;;3.40;;
13799;SDS011;6971;50.028;9.258;2023-03-26T11:03:50;4.33;;;1.93;;
13799;SDS011;6971;50.028;9.258;2023-03-26T11:08:59;6.60;;;2.17;;
13799;SDS011;6971;50.028;9.258;2023-03-26T11:14:08;5.33;;;2.57;;
13799;SDS011;6971;50.028;9.258;2023-03-26T11:19:18;4.03;;;2.13;;
13799;SDS011;6971;50.028;9.258;2023-03-26T11:30:11;2.37;;;1.20;;
13799;SDS011;6971;50.028;9.258;2023-03-26T11:35:22;2.23;;;1.27;;
13799;SDS011;6971;50.028;9.258;2023-03-26T11:40:39;1.33;;;1.00;;
13799;SDS011;6971;50.028;9.258;2023-03-26T11:45:45;2.57;;;2.23;;
13799;SDS011;6971;50.028;9.258;2023-03-26T11:50:58;4.00;;;2.13;;
13799;SDS011;6971;50.028;9.258;2023-03-26T12:06:55;1.93;;;1.40;;
13799;SDS011;6971;50.028;9.258;2023-03-26T12:12:01;4.00;;;1.57;;
13799;SDS011;6971;50.028;9.258;2023-03-26T12:17:04;4.17;;;1.70;;
13799;SDS011;6971;50.028;9.258;2023-03-26T12:32:50;2.90;;;1.80;;
13799;SDS011;6971;50.028;9.258;2023-03-26T12:37:55;3.97;;;2.03;;
13799;SDS011;6971;50.028;9.258;2023-03-26T12:43:21;2.23;;;1.60;;
13799;SDS011;6971;50.028;9.258;2023-03-26T12:48:27;3.10;;;1.77;;
13799;SDS011;6971;50.028;9.258;2023-03-26T12:59:28;5.83;;;2.73;;
13799;SDS011;6971;50.028;9.258;2023-03-26T13:10:03;5.87;;;2.10;;
13799;SDS011;6971;50.028;9.258;2023-03-26T13:20:33;2.03;;;1.50;;
13799;SDS011;6971;50.028;9.258;2023-03-26T13:26:09;1.87;;;1.00;;
13799;SDS011;6971;50.028;9.258;2023-03-26T13:31:28;1.80;;;1.03;;
13799;SDS011;6971;50.028;9.258;2023-03-26T13:47:50;1.97;;;1.30;;
13799;SDS011;6971;50.028;9.258;2023-03-26T13:58:33;1.47;;;1.10;;
13799;SDS011;6971;50.028;9.258;2023-03-26T14:03:52;2.17;;;1.30;;
13799;SDS011;6971;50.028;9.258;2023-03-26T14:08:59;3.13;;;1.87;;
13799;SDS011;6971;50.028;9.258;2023-03-26T14:14:08;4.33;;;2.40;;
13799;SDS011;6971;50.028;9.258;2023-03-26T14:19:26;7.67;;;6.47;;
13799;SDS011;6971;50.028;9.258;2023-03-26T14:24:42;6.93;;;5.50;;
13799;SDS011;6971;50.028;9.258;2023-03-26T14:35:19;6.10;;;2.73;;
13799;SDS011;6971;50.028;9.258;2023-03-26T14:56:40;4.47;;;1.30;;
13799;SDS011;6971;50.028;9.258;2023-03-26T15:01:55;4.23;;;1.73;;
13799;SDS011;6971;50.028;9.258;2023-03-26T15:49:44;3.20;;;1.70;;
13799;SDS011;6971;50.028;9.258;2023-03-26T15:55:23;5.20;;;1.70;;
13799;SDS011;6971;50.028;9.258;2023-03-26T16:00:34;5.63;;;1.60;;
13799;SDS011;6971;50.028;9.258;2023-03-26T16:11:09;4.03;;;1.80;;
13799;SDS011;6971;50.028;9.258;2023-03-26T16:26:34;5.25;;;1.85;;
13799;SDS011;6971;50.028;9.258;2023-03-26T16:31:36;6.60;;;2.10;;
13799;SDS011;6971;50.028;9.258;2023-03-26T16:36:58;9.40;;;5.33;;
13799;SDS011;6971;50.028;9.258;2023-03-26T16:41:59;2.37;;;1.23;;
13799;SDS011;6971;50.028;9.258;2023-03-26T16:47:16;4.60;;;1.17;;
13799;SDS011;6971;50.028;9.258;2023-03-26T16:52:34;2.93;;;0.90;;
13799;SDS011;6971;50.028;9.258;2023-03-26T16:57:53;3.10;;;1.30;;
13799;SDS011;6971;50.028;9.258;2023-03-26T17:08:35;1.37;;;0.90;;
13799;SDS011;6971;50.028;9.258;2023-03-26T17:29:17;2.67;;;1.50;;
13799;SDS011;6971;50.028;9.258;2023-03-26T17:44:53;1.75;;;1.65;;
13799;SDS011;6971;50.028;9.258;2023-03-26T17:49:57;2.97;;;1.90;;
13799;SDS011;6971;50.028;9.258;2023-03-26T17:55:02;3.20;;;2.13;;
13799;SDS011;6971;50.028;9.258;2023-03-26T18:00:02;2.23;;;1.73;;
13799;SDS011;6971;50.028;9.258;2023-03-26T18:05:13;4.57;;;3.70;;
13799;SDS011;6971;50.028;9.258;2023-03-26T18:15:21;5.72;;;5.13;;
13799;SDS011;6971;50.028;9.258;2023-03-26T18:20:26;2.70;;;2.13;;
13799;SDS011;6971;50.028;9.258;2023-03-26T18:25:29;2.37;;;2.00;;
13799;SDS011;6971;50.028;9.258;2023-03-26T18:30:32;2.37;;;2.13;;
13799;SDS011;6971;50.028;9.258;2023-03-26T18:35:52;3.23;;;2.37;;
13799;SDS011;6971;50.028;9.258;2023-03-26T18:40:55;3.00;;;2.10;;
13799;SDS011;6971;50.028;9.258;2023-03-26T18:45:55;2.60;;;2.40;;
13799;SDS011;6971;50.028;9.258;2023-03-26T18:50:58;2.80;;;1.87;;
13799;SDS011;6971;50.028;9.258;2023-03-26T18:56:01;5.07;;;2.93;;
13799;SDS011;6971;50.028;9.258;2023-03-26T19:01:16;3.53;;;2.37;;
13799;SDS011;6971;50.028;9.258;2023-03-26T19:06:18;3.10;;;2.23;;
13799;SDS011;6971;50.028;9.258;2023-03-26T19:11:19;3.00;;;2.40;;
13799;SDS011;6971;50.028;9.258;2023-03-26T19:16:21;4.17;;;2.40;;
13799;SDS011;6971;50.028;9.258;2023-03-26T19:21:24;5.63;;;2.80;;
13799;SDS011;6971;50.028;9.258;2023-03-26T19:26:24;6.80;;;2.67;;
13799;SDS011;6971;50.028;9.258;2023-03-26T19:36:30;5.57;;;2.33;;
13799;SDS011;6971;50.028;9.258;2023-03-26T19:41:40;3.10;;;2.80;;
13799;SDS011;6971;50.028;9.258;2023-03-26T19:46:43;3.47;;;3.03;;
13799;SDS011;6971;50.028;9.258;2023-03-26T19:51:45;4.07;;;3.67;;
13799;SDS011;6971;50.028;9.258;2023-03-26T19:56:51;4.60;;;3.90;;
13799;SDS011;6971;50.028;9.258;2023-03-26T20:01:52;4.50;;;3.60;;
13799;SDS011;6971;50.028;9.258;2023-03-26T20:06:52;4.87;;;4.03;;
13799;SDS011;6971;50.028;9.258;2023-03-26T20:11:52;6.53;;;4.33;;
13799;SDS011;6971;50.028;9.258;2023-03-26T20:16:53;8.17;;;4.97;;
13799;SDS011;6971;50.028;9.258;2023-03-26T20:21:53;5.77;;;3.80;;
13799;SDS011;6971;50.028;9.258;2023-03-26T20:26:54;6.47;;;3.60;;
13799;SDS011;6971;50.028;9.258;2023-03-26T20:31:54;3.60;;;3.30;;
13799;SDS011;6971;50.028;9.258;2023-03-26T20:36:55;6.07;;;2.90;;
13799;SDS011;6971;50.028;9.258;2023-03-26T20:41:56;5.23;;;3.30;;
13799;SDS011;6971;50.028;9.258;2023-03-26T20:46:56;3.97;;;2.57;;
13799;SDS011;6971;50.028;9.258;2023-03-26T20:51:57;5.40;;;2.70;;
13799;SDS011;6971;50.028;9.258;2023-03-26T20:56:59;8.17;;;2.53;;
13799;SDS011;6971;50.028;9.258;2023-03-26T21:02:01;5.13;;;2.70;;
13799;SDS011;6971;50.028;9.258;2023-03-26T21:07:01;3.37;;;2.90;;
13799;SDS011;6971;50.028;9.258;2023-03-26T21:12:04;6.77;;;4.07;;
13799;SDS011;6971;50.028;9.258;2023-03-26T21:17:14;3.67;;;3.23;;
13799;SDS011;6971;50.028;9.258;2023-03-26T21:27:22;4.03;;;3.00;;
13799;SDS011;6971;50.028;9.258;2023-03-26T21:32:26;5.33;;;3.13;;
13799;SDS011;6971;50.028;9.258;2023-03-26T21:37:28;4.47;;;4.07;;
13799;SDS011;6971;50.028;9.258;2023-03-26T21:42:28;6.47;;;5.00;;
13799;SDS011;6971;50.028;9.258;2023-03-26T21:47:29;7.83;;;4.90;;
13799;SDS011;6971;50.028;9.258;2023-03-26T21:52:29;4.67;;;4.17;;
13799;SDS011;6971;50.028;9.258;2023-03-26T21:57:37;5.67;;;4.23;;
13799;SDS011;6971;50.028;9.258;2023-03-26T22:02:58;3.20;;;2.90;;
13799;SDS011;6971;50.028;9.258;2023-03-26T22:08:18;1.70;;;1.60;;
13799;SDS011;6971;50.028;9.258;2023-03-26T22:13:25;1.80;;;1.60;;
13799;SDS011;6971;50.028;9.258;2023-03-26T22:18:26;1.63;;;1.10;;
13799;SDS011;6971;50.028;9.258;2023-03-26T22:23:29;1.87;;;1.00;;
13799;SDS011;6971;50.028;9.258;2023-03-26T22:28:33;1.20;;;1.10;;
13799;SDS011;6971;50.028;9.258;2023-03-26T22:33:33;1.57;;;1.07;;
13799;SDS011;6971;50.028;9.258;2023-03-26T22:38:35;1.63;;;1.20;;
13799;SDS011;6971;50.028;9.258;2023-03-26T22:43:36;1.47;;;1.30;;
13799;SDS011;6971;50.028;9.258;2023-03-26T22:48:36;2.40;;;1.77;;
13799;SDS011;6971;50.028;9.258;2023-03-26T22:53:39;2.10;;;1.70;;
13799;SDS011;6971;50.028;9.258;2023-03-26T22:58:40;3.30;;;2.33;;
13799;SDS011;6971;50.028;9.258;2023-03-26T23:03:41;2.60;;;2.33;;
13799;SDS011;6971;50.028;9.258;2023-03-26T23:08:41;3.40;;;2.53;;
13799;SDS011;6971;50.028;9.258;2023-03-26T23:13:42;3.30;;;2.53;;
13799;SDS011;6971;50.028;9.258;2023-03-26T23:18:43;2.90;;;2.20;;
13799;SDS011;6971;50.028;9.258;2023-03-26T23:23:44;3.23;;;2.40;;
13799;SDS011;6971;50.028;9.258;2023-03-26T23:28:51;7.07;;;3.10;;
13799;SDS011;6971;50.028;9.258;2023-03-26T23:33:51;3.40;;;2.33;;
13799;SDS011;6971;50.028;9.258;2023-03-26T23:38:52;4.47;;;2.47;;
13799;SDS011;6971;50.028;9.258;2023-03-26T23:43:52;4.13;;;2.83;;
13799;SDS011;6971;50.028;9.258;2023-03-26T23:48:53;4.87;;;2.63;;
13799;SDS011;6971;50.028;9.258;2023-03-26T23:53:53;3.60;;;2.97;;
13799;SDS011;6971;50.028;9.258;2023-03-26T23:58:54;3.70;;;2.97;;
